createdAt,value
2018-07-15T00:01:45.322Z,14.97
2018-07-15T00:04:13.943Z,14.23
2018-07-15T00:06:42.629Z,14.60
2018-07-15T00:09:12.334Z,14.00
2018-07-15T00:11:41.467Z,14.80
2018-07-15T00:14:10.163Z,14.27
2018-07-15T00:16:39.551Z,14.90
2018-07-15T00:19:08.341Z,13.73
2018-07-15T00:21:36.938Z,14.47
2018-07-15T00:24:05.607Z,14.33
2018-07-15T00:26:35.112Z,15.70
2018-07-15T00:29:03.793Z,12.80
2018-07-15T00:31:32.492Z,14.97
2018-07-15T00:34:01.796Z,13.70
2018-07-15T00:36:31.148Z,14.80
2018-07-15T00:38:59.742Z,13.90
2018-07-15T00:41:28.431Z,13.80
2018-07-15T00:43:57.798Z,14.20
2018-07-15T00:46:26.984Z,14.10
2018-07-15T00:48:56.513Z,14.40
2018-07-15T00:51:26.077Z,14.60
2018-07-15T00:53:54.708Z,13.97
2018-07-15T00:56:25.780Z,14.40
2018-07-15T00:58:54.428Z,14.63
2018-07-15T01:01:23.384Z,14.00
2018-07-15T01:03:52.682Z,14.30
2018-07-15T01:06:22.237Z,14.17
2018-07-15T01:08:50.955Z,14.47
2018-07-15T01:11:19.513Z,14.13
2018-07-15T01:13:48.129Z,14.00
2018-07-15T01:16:17.493Z,14.63
2018-07-15T01:18:46.783Z,15.27
2018-07-15T01:21:16.473Z,15.03
2018-07-15T01:23:45.039Z,13.37
2018-07-15T01:26:14.775Z,14.33
2018-07-15T01:28:44.473Z,13.83
2018-07-15T01:31:13.151Z,15.00
2018-07-15T01:33:42.664Z,15.70
2018-07-15T01:36:11.301Z,17.47
2018-07-15T01:38:41.282Z,16.53
2018-07-15T01:41:09.976Z,17.07
2018-07-15T01:43:38.561Z,16.40
2018-07-15T01:46:08.122Z,14.90
2018-07-15T01:48:36.889Z,14.80
2018-07-15T01:51:06.519Z,15.23
2018-07-15T01:53:36.435Z,15.67
2018-07-15T01:56:05.053Z,14.73
2018-07-15T01:58:34.662Z,15.67
2018-07-15T02:01:03.387Z,15.07
2018-07-15T02:03:32.274Z,14.43
2018-07-15T02:06:01.441Z,15.93
2018-07-15T02:08:30.610Z,15.37
2018-07-15T02:10:59.312Z,14.60
2018-07-15T02:13:28.838Z,15.00
2018-07-15T02:15:57.486Z,14.57
2018-07-15T02:18:26.689Z,15.80
2018-07-15T02:20:55.273Z,15.17
2018-07-15T02:23:24.390Z,15.13
2018-07-15T02:25:53.848Z,14.97
2018-07-15T02:28:22.842Z,14.50
2018-07-15T02:30:52.275Z,14.50
2018-07-15T02:33:20.948Z,14.50
2018-07-15T02:35:49.561Z,14.73
2018-07-15T02:38:18.179Z,14.87
2018-07-15T02:40:46.868Z,14.53
2018-07-15T02:43:15.553Z,14.93
2018-07-15T02:45:45.539Z,15.93
2018-07-15T02:48:15.232Z,15.60
2018-07-15T02:50:43.799Z,14.60
2018-07-15T02:53:13.043Z,15.30
2018-07-15T02:55:41.752Z,16.30
2018-07-15T02:58:10.687Z,16.70
2018-07-15T03:00:39.351Z,17.10
2018-07-15T03:03:08.336Z,16.57
2018-07-15T03:05:39.310Z,18.47
2018-07-15T03:08:08.953Z,18.27
2018-07-15T03:10:37.563Z,18.13
2018-07-15T03:13:07.796Z,17.60
2018-07-15T03:15:37.223Z,18.07
2018-07-15T03:18:06.877Z,16.87
2018-07-15T03:20:35.725Z,17.57
2018-07-15T03:23:04.369Z,17.67
2018-07-15T03:25:33.001Z,18.23
2018-07-15T03:28:01.821Z,17.77
2018-07-15T03:30:30.524Z,16.90
2018-07-15T03:32:59.999Z,18.33
2018-07-15T03:35:28.578Z,20.50
2018-07-15T03:37:57.738Z,20.53
2018-07-15T03:40:26.365Z,19.10
2018-07-15T03:42:55.809Z,18.53
2018-07-15T03:45:24.344Z,16.60
2018-07-15T03:47:54.578Z,15.10
2018-07-15T03:50:23.218Z,15.60
2018-07-15T03:52:52.710Z,14.97
2018-07-15T03:55:22.016Z,15.57
2018-07-15T03:57:50.715Z,16.57
2018-07-15T04:00:19.932Z,16.00
2018-07-15T04:02:49.119Z,16.10
2018-07-15T04:05:17.835Z,15.00
2018-07-15T04:07:47.317Z,14.87
2018-07-15T04:10:16.236Z,14.63
2018-07-15T04:12:44.866Z,14.80
2018-07-15T04:15:14.153Z,14.37
2018-07-15T04:17:43.398Z,16.13
2018-07-15T04:20:12.098Z,16.40
2018-07-15T04:22:40.710Z,17.60
2018-07-15T04:25:09.313Z,18.20
2018-07-15T04:27:38.150Z,17.50
2018-07-15T04:30:07.539Z,18.60
2018-07-15T04:32:36.827Z,16.63
2018-07-15T04:35:05.638Z,18.43
2018-07-15T04:37:34.210Z,17.17
2018-07-15T04:40:02.768Z,16.57
2018-07-15T04:42:31.365Z,17.70
2018-07-15T04:45:00.626Z,16.23
2018-07-15T04:47:30.147Z,17.10
2018-07-15T04:49:58.733Z,16.17
2018-07-15T04:52:30.904Z,16.43
2018-07-15T04:54:59.516Z,17.43
2018-07-15T04:57:29.082Z,17.27
2018-07-15T04:59:58.439Z,17.00
2018-07-15T05:02:27.260Z,17.07
2018-07-15T05:04:55.853Z,17.67
2018-07-15T05:07:25.426Z,17.97
2018-07-15T05:09:54.679Z,17.60
2018-07-15T05:12:24.665Z,16.63
2018-07-15T05:14:53.271Z,17.00
2018-07-15T05:17:24.101Z,17.10
2018-07-15T05:19:52.728Z,17.30
2018-07-15T05:22:22.592Z,16.27
2018-07-15T05:24:51.197Z,18.10
2018-07-15T05:27:20.501Z,18.03
2018-07-15T05:29:49.334Z,17.00
2018-07-15T05:32:18.717Z,16.77
2018-07-15T05:34:48.031Z,16.17
2018-07-15T05:37:16.579Z,16.90
2018-07-15T05:39:45.764Z,16.50
2018-07-15T05:42:14.626Z,17.37
2018-07-15T05:44:43.578Z,18.03
2018-07-15T05:47:12.723Z,18.23
2018-07-15T05:49:41.353Z,18.93
2018-07-15T05:52:10.005Z,17.03
2018-07-15T05:54:39.981Z,17.40
2018-07-15T05:57:08.770Z,16.80
2018-07-15T05:59:38.262Z,17.13
2018-07-15T06:02:07.049Z,17.87
2018-07-15T06:04:36.943Z,16.70
2018-07-15T06:07:05.838Z,16.53
2018-07-15T06:09:34.983Z,17.03
2018-07-15T06:12:04.306Z,15.97
2018-07-15T06:14:32.914Z,17.70
2018-07-15T06:17:02.097Z,17.43
2018-07-15T06:19:31.069Z,16.20
2018-07-15T06:21:59.667Z,15.67
2018-07-15T06:24:28.992Z,15.87
2018-07-15T06:26:58.502Z,15.23
2018-07-15T06:29:27.951Z,15.70
2018-07-15T06:31:56.574Z,15.10
2018-07-15T06:34:26.402Z,14.97
2018-07-15T06:36:54.946Z,14.33
2018-07-15T06:39:23.528Z,13.60
2018-07-15T06:41:52.216Z,14.60
2018-07-15T06:44:21.491Z,13.90
2018-07-15T06:46:52.056Z,13.77
2018-07-15T06:49:22.997Z,12.80
2018-07-15T06:51:54.522Z,11.97
2018-07-15T06:54:25.321Z,11.57
2018-07-15T06:56:56.546Z,12.60
2018-07-15T06:59:27.996Z,12.20
2018-07-15T07:02:00.489Z,12.00
2018-07-15T07:04:31.421Z,11.70
2018-07-15T07:07:02.647Z,11.00
2018-07-15T07:09:32.770Z,10.97
2018-07-15T07:12:04.526Z,10.23
2018-07-15T07:14:35.755Z,9.70
2018-07-15T07:17:05.997Z,9.90
2018-07-15T07:19:37.274Z,10.50
2018-07-15T07:22:08.131Z,9.60
2018-07-15T07:24:38.806Z,9.80
2018-07-15T07:27:09.730Z,9.50
2018-07-15T07:29:38.314Z,9.20
2018-07-15T07:32:09.314Z,8.37
2018-07-15T07:34:39.981Z,8.93
2018-07-15T07:37:11.066Z,8.53
2018-07-15T07:39:41.670Z,8.77
2018-07-15T07:42:10.285Z,9.00
2018-07-15T07:44:40.556Z,9.60
2018-07-15T07:47:12.088Z,9.30
2018-07-15T07:49:42.650Z,9.10
2018-07-15T07:52:13.911Z,8.30
2018-07-15T07:54:44.729Z,8.93
2018-07-15T07:57:13.648Z,9.00
2018-07-15T07:59:44.551Z,9.70
2018-07-15T08:02:15.811Z,9.70
2018-07-15T08:04:47.782Z,9.37
2018-07-15T08:07:20.640Z,9.90
2018-07-15T08:09:51.734Z,9.90
2018-07-15T08:12:23.390Z,10.30
2018-07-15T08:14:58.903Z,9.47
2018-07-15T08:17:30.229Z,9.57
2018-07-15T08:20:01.208Z,10.60
2018-07-15T08:22:32.520Z,10.40
2018-07-15T08:25:01.220Z,10.47
2018-07-15T08:27:31.878Z,9.83
2018-07-15T08:30:13.234Z,8.97
2018-07-15T08:32:44.230Z,9.50
2018-07-15T08:35:15.089Z,10.20
2018-07-15T08:37:47.663Z,9.67
2018-07-15T08:40:17.669Z,10.80
2018-07-15T08:42:49.625Z,9.70
2018-07-15T08:45:21.358Z,9.57
2018-07-15T08:47:52.668Z,9.80
2018-07-15T08:50:24.030Z,9.90
2018-07-15T08:52:54.827Z,9.67
2018-07-15T08:55:26.300Z,10.70
2018-07-15T08:57:57.698Z,10.80
2018-07-15T09:00:29.122Z,9.67
2018-07-15T09:02:59.931Z,9.30
2018-07-15T09:05:30.838Z,9.93
2018-07-15T09:07:59.494Z,9.53
2018-07-15T09:10:30.388Z,10.07
2018-07-15T09:13:01.007Z,8.70
2018-07-15T09:15:31.957Z,10.20
2018-07-15T09:18:03.375Z,9.27
2018-07-15T09:20:31.998Z,9.00
2018-07-15T09:23:03.619Z,8.60
2018-07-15T09:25:34.330Z,8.93
2018-07-15T09:28:05.353Z,8.57
2018-07-15T09:30:36.224Z,8.30
2018-07-15T09:33:07.723Z,8.13
2018-07-15T09:35:38.623Z,8.37
2018-07-15T09:38:09.415Z,9.07
2018-07-15T09:40:39.685Z,8.40
2018-07-15T09:43:10.863Z,8.20
2018-07-15T09:45:41.777Z,8.00
2018-07-15T09:48:11.175Z,8.10
2018-07-15T09:50:42.140Z,7.60
2018-07-15T09:53:13.218Z,8.93
2018-07-15T09:55:44.311Z,7.50
2018-07-15T09:58:15.023Z,7.50
2018-07-15T10:00:50.986Z,8.30
2018-07-15T10:03:21.779Z,7.13
2018-07-15T10:05:53.630Z,7.50
2018-07-15T10:08:24.467Z,7.13
2018-07-15T10:10:55.874Z,6.97
2018-07-15T10:13:26.445Z,7.67
2018-07-15T10:15:57.143Z,7.00
2018-07-15T10:18:27.714Z,6.93
2018-07-15T10:20:59.214Z,8.20
2018-07-15T10:23:31.409Z,7.13
2018-07-15T10:26:04.225Z,6.87
2018-07-15T10:28:33.084Z,7.60
2018-07-15T10:31:03.618Z,7.00
2018-07-15T10:33:34.216Z,7.30
2018-07-15T10:36:05.272Z,7.27
2018-07-15T10:38:36.359Z,7.83
2018-07-15T10:41:05.417Z,7.63
2018-07-15T10:43:34.367Z,7.70
2018-07-15T10:46:03.062Z,7.30
2018-07-15T10:48:31.674Z,7.50
2018-07-15T10:51:00.370Z,7.23
2018-07-15T10:53:29.124Z,7.20
2018-07-15T10:55:57.828Z,7.97
2018-07-15T10:58:26.544Z,7.90
2018-07-15T11:00:55.232Z,7.00
2018-07-15T11:03:23.909Z,7.23
2018-07-15T11:05:53.514Z,8.10
2018-07-15T11:08:22.187Z,10.40
2018-07-15T11:10:50.873Z,11.03
2018-07-15T11:13:19.654Z,10.20
2018-07-15T11:15:49.737Z,9.50
2018-07-15T11:18:19.195Z,9.43
2018-07-15T11:20:48.805Z,9.67
2018-07-15T11:23:17.571Z,10.20
2018-07-15T11:25:46.393Z,11.53
2018-07-15T11:28:15.189Z,11.60
2018-07-15T11:30:44.135Z,10.50
2018-07-15T11:33:13.454Z,11.90
2018-07-15T11:35:42.313Z,11.20
2018-07-15T11:38:11.857Z,10.97
2018-07-15T11:40:40.835Z,11.23
2018-07-15T11:43:09.914Z,11.10
2018-07-15T11:45:39.042Z,10.80
2018-07-15T11:48:07.835Z,10.40
2018-07-15T11:50:36.571Z,12.00
2018-07-15T11:53:05.253Z,10.77
2018-07-15T11:55:34.046Z,10.47
2018-07-15T11:58:02.719Z,13.13
2018-07-15T12:00:31.375Z,11.47
2018-07-15T12:03:01.288Z,12.67
2018-07-15T12:05:30.745Z,12.20
2018-07-15T12:08:00.336Z,12.67
2018-07-15T12:10:29.291Z,11.93
2018-07-15T12:12:58.327Z,11.67
2018-07-15T12:15:27.706Z,10.63
2018-07-15T12:17:56.453Z,11.53
2018-07-15T12:20:25.127Z,10.97
2018-07-15T12:22:53.741Z,10.80
2018-07-15T12:25:22.430Z,10.57
2018-07-15T12:27:51.130Z,10.47
2018-07-15T12:30:19.785Z,10.67
2018-07-15T12:32:48.696Z,10.90
2018-07-15T12:35:17.478Z,10.70
2018-07-15T12:37:46.172Z,11.90
2018-07-15T12:40:15.324Z,9.43
2018-07-15T12:42:44.030Z,9.90
2018-07-15T12:45:12.784Z,8.67
2018-07-15T12:47:41.465Z,8.57
2018-07-15T12:50:10.733Z,9.00
2018-07-15T12:52:39.533Z,7.20
2018-07-15T12:55:08.339Z,7.30
2018-07-15T12:57:37.049Z,6.97
2018-07-15T13:00:06.373Z,7.87
2018-07-15T13:02:35.834Z,6.90
2018-07-15T13:05:04.904Z,6.57
2018-07-15T13:07:33.581Z,6.90
2018-07-15T13:10:02.345Z,6.20
2018-07-15T13:12:31.143Z,6.87
2018-07-15T13:14:59.795Z,6.80
2018-07-15T13:17:28.474Z,6.40
2018-07-15T13:19:58.299Z,6.87
2018-07-15T13:22:27.437Z,6.00
2018-07-15T13:24:56.285Z,5.60
2018-07-15T13:27:25.129Z,5.37
2018-07-15T13:30:03.254Z,5.63
2018-07-15T13:35:59.405Z,6.00
2018-07-15T13:38:29.980Z,4.83
2018-07-15T13:40:58.820Z,5.40
2018-07-15T13:43:27.684Z,5.20
2018-07-15T13:45:56.833Z,4.50
2018-07-15T13:48:28.856Z,4.60
2018-07-15T13:50:57.719Z,4.67
2018-07-15T13:53:26.237Z,5.30
2018-07-15T13:55:55.624Z,5.17
2018-07-15T13:58:24.432Z,4.93
2018-07-15T14:00:53.613Z,5.47
2018-07-15T14:03:22.260Z,5.57
2018-07-15T14:05:50.986Z,6.20
2018-07-15T14:08:19.772Z,6.07
2018-07-15T14:30:57.688Z,5.23
2018-07-15T14:33:26.306Z,5.53
2018-07-15T14:35:55.892Z,5.40
2018-07-15T14:38:24.755Z,5.40
2018-07-15T14:40:53.607Z,4.83
2018-07-15T14:43:22.705Z,4.60
2018-07-15T14:45:51.726Z,5.60
2018-07-15T14:48:21.103Z,4.70
2018-07-15T14:50:49.995Z,4.80
2018-07-15T14:53:18.800Z,5.50
2018-07-15T14:55:48.475Z,5.20
2018-07-15T14:58:17.210Z,4.70
2018-07-15T15:00:46.736Z,4.90
2018-07-15T15:03:15.567Z,4.70
2018-07-15T15:05:44.550Z,4.83
2018-07-15T15:08:13.625Z,4.97
2018-07-15T15:10:42.469Z,5.67
2018-07-15T15:13:11.234Z,4.70
2018-07-15T15:15:40.304Z,4.67
2018-07-15T15:18:09.446Z,5.33
2018-07-15T15:20:42.430Z,5.37
2018-07-15T15:23:11.233Z,4.53
2018-07-15T15:25:39.979Z,5.10
2018-07-15T15:28:08.556Z,4.40
2018-07-15T15:30:37.272Z,5.03
2018-07-15T15:33:06.355Z,5.20
2018-07-15T15:35:35.745Z,5.30
2018-07-15T15:38:04.952Z,5.07
2018-07-15T15:40:33.718Z,4.63
2018-07-15T15:43:02.588Z,5.23
2018-07-15T15:45:32.644Z,4.60
2018-07-15T15:48:01.522Z,5.13
2018-07-15T15:50:30.402Z,5.33
2018-07-15T15:53:00.486Z,4.90
2018-07-15T15:55:29.626Z,5.13
2018-07-15T15:57:59.372Z,6.47
2018-07-15T16:00:28.182Z,7.10
2018-07-15T16:02:57.119Z,6.10
2018-07-15T16:05:26.861Z,5.80
2018-07-15T16:07:55.542Z,4.50
2018-07-15T16:10:24.984Z,4.63
2018-07-15T16:12:53.677Z,4.57
2018-07-15T16:15:23.551Z,4.10
2018-07-15T16:17:59.090Z,4.30
2018-07-15T16:20:27.813Z,3.93
2018-07-15T16:22:56.553Z,4.43
2018-07-15T16:25:26.093Z,4.27
2018-07-15T16:27:55.207Z,4.50
2018-07-15T16:30:24.244Z,4.13
2018-07-15T16:32:53.335Z,4.50
2018-07-15T16:35:22.168Z,4.27
2018-07-15T16:37:51.855Z,4.40
2018-07-15T16:40:20.643Z,4.40
2018-07-15T16:42:49.940Z,5.10
2018-07-15T16:45:23.664Z,4.63
2018-07-15T16:47:52.549Z,4.60
2018-07-15T16:50:21.535Z,4.67
2018-07-15T16:52:50.191Z,5.33
2018-07-15T16:55:18.971Z,4.27
2018-07-15T16:57:47.783Z,4.57
2018-07-15T17:00:16.947Z,4.70
2018-07-15T17:02:45.679Z,5.30
2018-07-15T17:05:15.274Z,4.53
2018-07-15T17:07:44.084Z,4.60
2018-07-15T17:10:12.870Z,4.27
2018-07-15T17:12:41.681Z,3.90
2018-07-15T17:15:10.449Z,4.10
2018-07-15T17:17:39.454Z,3.97
2018-07-15T17:20:08.928Z,4.17
2018-07-15T17:22:37.669Z,4.57
2018-07-15T17:25:06.685Z,4.80
2018-07-15T17:27:35.468Z,6.23
2018-07-15T17:30:04.200Z,5.17
2018-07-15T17:32:32.827Z,4.93
2018-07-15T17:35:01.539Z,5.03
2018-07-15T17:37:30.262Z,5.70
2018-07-15T17:39:58.946Z,4.50
2018-07-15T17:42:27.646Z,4.20
2018-07-15T17:44:57.044Z,4.00
2018-07-15T17:47:25.737Z,4.60
2018-07-15T17:49:54.504Z,4.17
2018-07-15T17:52:23.137Z,4.20
2018-07-15T17:54:51.861Z,4.70
2018-07-15T17:57:20.804Z,4.30
2018-07-15T17:59:50.358Z,4.10
2018-07-15T18:02:19.022Z,4.20
2018-07-15T18:04:47.747Z,4.27
2018-07-15T18:07:16.888Z,3.70
2018-07-15T18:09:45.961Z,4.10
2018-07-15T18:12:14.880Z,4.13
2018-07-15T18:14:44.182Z,3.60
2018-07-15T18:17:13.141Z,4.30
2018-07-15T18:19:41.969Z,4.50
2018-07-15T18:22:12.565Z,4.40
2018-07-15T18:27:21.902Z,4.13
2018-07-15T18:29:50.837Z,3.87
2018-07-15T18:32:19.695Z,4.80
2018-07-15T18:34:48.988Z,4.10
2018-07-15T18:37:17.852Z,4.53
2018-07-15T18:39:47.214Z,3.70
2018-07-15T18:42:16.677Z,4.10
2018-07-15T18:44:47.706Z,4.27
2018-07-15T18:47:16.733Z,4.20
2018-07-15T18:49:45.947Z,4.27
2018-07-15T18:52:15.390Z,5.43
2018-07-15T18:54:44.249Z,4.63
2018-07-15T18:57:13.619Z,6.17
2018-07-15T18:59:44.004Z,4.87
2018-07-15T19:02:12.722Z,4.70
2018-07-15T19:04:42.532Z,4.17
2018-07-15T19:07:12.569Z,4.57
2018-07-15T19:09:41.399Z,5.20
2018-07-15T19:12:10.204Z,4.70
2018-07-15T19:14:38.993Z,4.57
2018-07-15T19:17:07.885Z,4.00
2018-07-15T19:19:36.626Z,4.37
2018-07-15T19:22:05.417Z,4.80
2018-07-15T19:24:34.953Z,4.60
2018-07-15T19:27:03.722Z,4.60
2018-07-15T19:29:32.744Z,4.10
2018-07-15T19:32:01.395Z,4.20
2018-07-15T19:34:30.075Z,4.10
2018-07-15T19:36:58.854Z,4.47
2018-07-15T19:39:28.560Z,3.97
2018-07-15T19:41:57.274Z,4.17
2018-07-15T19:44:26.510Z,4.07
2018-07-15T19:46:55.160Z,4.10
2018-07-15T19:49:24.163Z,3.30
2018-07-15T19:51:53.088Z,3.50
2018-07-15T19:54:21.754Z,4.00
2018-07-15T19:56:51.037Z,4.00
2018-07-15T19:59:20.017Z,4.00
2018-07-15T20:01:48.685Z,3.50
2018-07-15T20:04:17.294Z,3.67
2018-07-15T20:06:46.117Z,3.77
2018-07-15T20:09:15.198Z,3.20
2018-07-15T20:11:44.003Z,3.60
2018-07-15T20:14:13.075Z,3.43
2018-07-15T20:16:41.809Z,3.50
2018-07-15T20:19:10.625Z,4.00
2018-07-15T20:21:40.414Z,3.40
2018-07-15T20:24:09.116Z,3.50
2018-07-15T20:26:37.830Z,4.40
2018-07-15T20:29:06.956Z,8.43
2018-07-15T20:31:36.309Z,6.20
2018-07-15T20:34:05.846Z,4.20
2018-07-15T20:36:35.472Z,4.47
2018-07-15T20:39:05.177Z,3.57
2018-07-15T20:41:34.649Z,3.87
2018-07-15T20:44:04.051Z,4.30
2018-07-15T20:46:33.633Z,3.97
2018-07-15T20:49:03.042Z,3.60
2018-07-15T20:51:32.101Z,3.77
2018-07-15T20:54:01.771Z,3.60
2018-07-15T20:56:31.083Z,4.30
2018-07-15T20:59:01.977Z,3.90
2018-07-15T21:01:31.454Z,3.87
2018-07-15T21:04:03.423Z,4.20
2018-07-15T21:06:33.288Z,4.27
2018-07-15T21:09:01.921Z,4.23
2018-07-15T21:11:30.531Z,4.10
2018-07-15T21:13:59.332Z,4.07
2018-07-15T21:16:28.099Z,4.37
2018-07-15T21:18:56.945Z,4.47
2018-07-15T21:21:25.712Z,4.47
2018-07-15T21:23:54.430Z,4.27
2018-07-15T21:26:23.195Z,4.10
2018-07-15T21:28:51.831Z,4.40
2018-07-15T21:31:21.288Z,4.10
2018-07-15T21:33:49.971Z,5.33
2018-07-15T21:36:18.597Z,4.97
2018-07-15T21:38:48.026Z,5.50
2018-07-15T21:41:17.098Z,5.10
2018-07-15T21:43:45.772Z,4.70
2018-07-15T21:46:14.666Z,5.00
2018-07-15T21:48:43.956Z,5.13
2018-07-15T21:51:12.565Z,5.10
2018-07-15T21:53:41.150Z,5.13
2018-07-15T21:56:09.818Z,5.23
2018-07-15T21:58:38.516Z,5.00
2018-07-15T22:01:07.217Z,5.00
2018-07-15T22:03:35.887Z,5.20
2018-07-15T22:06:04.482Z,4.83
2018-07-15T22:09:47.326Z,4.83
2018-07-15T22:12:15.987Z,4.50
2018-07-15T22:14:45.056Z,5.00
2018-07-15T22:17:13.954Z,4.70
2018-07-15T22:19:44.063Z,5.13
2018-07-15T22:22:13.067Z,5.40
2018-07-15T22:24:41.663Z,5.10
2018-07-15T22:27:10.480Z,5.70
2018-07-15T22:29:39.285Z,5.17
2018-07-15T22:32:07.930Z,5.07
2018-07-15T22:34:36.783Z,5.13
2018-07-15T22:37:06.808Z,4.87
2018-07-15T22:39:35.402Z,5.20
2018-07-15T22:42:04.039Z,5.50
2018-07-15T22:44:32.657Z,5.30
2018-07-15T22:47:01.282Z,5.07
2018-07-15T22:49:29.885Z,4.70
2018-07-15T22:51:58.485Z,5.43
2018-07-15T22:54:27.109Z,6.00
2018-07-15T22:56:55.815Z,5.17
2018-07-15T22:59:24.469Z,5.30
2018-07-15T23:01:53.119Z,5.23
2018-07-15T23:04:33.543Z,5.40
2018-07-15T23:07:02.784Z,4.87
2018-07-15T23:09:31.433Z,5.40
2018-07-15T23:12:00.767Z,5.30
2018-07-15T23:14:29.748Z,5.10
2018-07-15T23:16:58.431Z,5.67
2018-07-15T23:19:27.964Z,5.10
2018-07-15T23:21:56.618Z,6.27
2018-07-15T23:24:26.814Z,5.40
2018-07-15T23:26:55.546Z,5.70
2018-07-15T23:29:24.306Z,6.03
2018-07-15T23:31:53.010Z,5.00
2018-07-15T23:34:21.636Z,4.97
2018-07-15T23:36:50.386Z,5.30
2018-07-15T23:39:18.977Z,5.30
2018-07-15T23:41:47.740Z,5.27
2018-07-15T23:44:16.342Z,4.80
2018-07-15T23:46:45.209Z,5.60
2018-07-15T23:49:15.200Z,4.80
2018-07-15T23:51:43.865Z,5.00
2018-07-15T23:54:13.641Z,5.27
2018-07-15T23:56:42.971Z,4.93
2018-07-15T23:59:11.548Z,5.10
